createdAt,value
2022-11-05T00:02:58.916Z,88.26
2022-11-05T00:08:23.218Z,88.32
2022-11-05T00:13:44.862Z,88.18
2022-11-05T00:19:06.601Z,88.57
2022-11-05T00:24:38.858Z,88.59
2022-11-05T00:29:41.752Z,88.74
2022-11-05T00:34:44.591Z,89.04
2022-11-05T00:39:47.513Z,89.07
2022-11-05T00:45:02.654Z,89.21
2022-11-05T00:50:05.939Z,89.15
2022-11-05T00:55:08.973Z,89.14
2022-11-05T01:00:12.929Z,89.26
2022-11-05T01:05:16.146Z,89.20
2022-11-05T01:10:19.622Z,89.28
2022-11-05T01:15:23.081Z,89.46
2022-11-05T01:20:26.864Z,89.48
2022-11-05T01:25:29.956Z,89.61
2022-11-05T01:30:33.199Z,89.61
2022-11-05T01:35:36.142Z,89.62
2022-11-05T01:40:43.244Z,89.81
2022-11-05T01:45:51.269Z,89.83
2022-11-05T01:51:04.697Z,89.88
2022-11-05T01:56:53.885Z,90.08
2022-11-05T02:01:57.196Z,90.21
2022-11-05T02:07:00.564Z,90.24
2022-11-05T02:12:04.013Z,90.30
2022-11-05T02:17:32.655Z,90.36
2022-11-05T02:23:18.800Z,90.32
2022-11-05T02:29:08.331Z,90.36
2022-11-05T02:34:28.457Z,90.44
2022-11-05T02:39:58.999Z,90.54
2022-11-05T02:45:25.845Z,90.58
2022-11-05T02:50:44.709Z,90.75
2022-11-05T02:55:59.436Z,90.77
2022-11-05T03:01:06.914Z,90.92
2022-11-05T03:06:34.166Z,91.13
2022-11-05T03:12:21.662Z,91.11
2022-11-05T03:17:44.805Z,91.10
2022-11-05T03:23:14.454Z,91.17
2022-11-05T03:28:24.484Z,91.32
2022-11-05T03:33:31.445Z,91.44
2022-11-05T03:38:40.131Z,91.44
2022-11-05T03:43:50.208Z,91.56
2022-11-05T03:48:57.148Z,91.68
2022-11-05T03:54:04.136Z,91.64
2022-11-05T03:59:10.173Z,91.65
2022-11-05T04:04:13.097Z,91.64
2022-11-05T04:09:34.967Z,91.56
2022-11-05T04:14:39.494Z,91.60
2022-11-05T04:20:03.345Z,91.64
2022-11-05T04:25:06.596Z,91.70
2022-11-05T04:30:18.968Z,91.74
2022-11-05T04:35:22.243Z,91.72
2022-11-05T04:40:25.830Z,91.84
2022-11-05T04:45:33.090Z,91.90
2022-11-05T04:50:36.200Z,91.92
2022-11-05T04:55:39.022Z,92.04
2022-11-05T05:00:42.295Z,92.11
2022-11-05T05:05:45.319Z,91.97
2022-11-05T05:10:48.218Z,91.93
2022-11-05T05:15:51.122Z,92.01
2022-11-05T05:21:30.006Z,91.94
2022-11-05T05:26:32.867Z,91.88
2022-11-05T05:31:36.352Z,91.86
2022-11-05T05:36:39.426Z,91.81
2022-11-05T05:41:42.293Z,91.84
2022-11-05T05:46:45.297Z,91.78
2022-11-05T05:51:49.644Z,91.68
2022-11-05T05:56:52.538Z,91.65
2022-11-05T06:01:55.527Z,91.69
2022-11-05T06:06:58.666Z,91.60
2022-11-05T06:12:01.590Z,91.57
2022-11-05T06:17:04.506Z,91.54
2022-11-05T06:22:07.525Z,91.54
2022-11-05T06:27:10.420Z,91.49
2022-11-05T06:32:13.296Z,91.43
2022-11-05T06:37:16.277Z,91.39
2022-11-05T06:42:19.572Z,91.32
2022-11-05T06:47:22.551Z,91.29
2022-11-05T06:52:27.287Z,91.31
2022-11-05T06:57:30.184Z,91.29
2022-11-05T07:02:33.141Z,91.21
2022-11-05T07:07:36.046Z,91.15
2022-11-05T07:12:39.056Z,91.14
2022-11-05T07:17:45.235Z,91.17
2022-11-05T07:22:48.185Z,91.15
2022-11-05T07:27:51.269Z,91.13
2022-11-05T07:32:54.133Z,91.11
2022-11-05T07:37:57.364Z,91.14
2022-11-05T07:43:02.233Z,91.10
2022-11-05T07:48:06.082Z,91.19
2022-11-05T07:53:15.184Z,91.17
2022-11-05T07:58:18.936Z,91.13
2022-11-05T08:03:21.947Z,91.11
2022-11-05T08:08:25.389Z,91.10
2022-11-05T08:13:28.846Z,91.16
2022-11-05T08:18:33.161Z,91.18
2022-11-05T08:23:36.172Z,91.22
2022-11-05T08:28:39.109Z,91.28
2022-11-05T08:33:42.716Z,91.29
2022-11-05T08:38:45.570Z,91.18
2022-11-05T08:43:48.542Z,91.31
2022-11-05T08:48:51.388Z,91.35
2022-11-05T08:53:54.385Z,91.40
2022-11-05T08:58:57.252Z,91.46
2022-11-05T09:04:00.401Z,91.46
2022-11-05T09:09:03.865Z,91.54
2022-11-05T09:14:07.060Z,91.42
2022-11-05T09:19:10.685Z,91.47
2022-11-05T09:24:13.831Z,91.56
2022-11-05T09:29:16.716Z,91.51
2022-11-05T09:34:19.613Z,91.57
2022-11-05T09:39:22.986Z,91.61
2022-11-05T09:45:00.612Z,91.64
2022-11-05T09:50:14.349Z,91.61
2022-11-05T09:55:37.281Z,91.62
2022-11-05T10:00:41.100Z,91.60
2022-11-05T10:06:08.600Z,91.58
2022-11-05T10:11:21.946Z,91.58
2022-11-05T10:16:39.162Z,91.58
2022-11-05T10:22:05.702Z,91.68
2022-11-05T10:27:06.473Z,91.63
2022-11-05T10:32:25.753Z,91.68
2022-11-05T10:37:30.403Z,91.57
2022-11-05T10:42:55.919Z,91.55
2022-11-05T10:48:23.505Z,91.54
2022-11-05T10:53:32.110Z,91.57
2022-11-05T10:58:37.200Z,91.60
2022-11-05T11:04:00.305Z,91.53
2022-11-05T11:09:08.653Z,91.56
2022-11-05T11:14:14.620Z,91.56
2022-11-05T11:19:20.561Z,91.54
2022-11-05T11:24:23.503Z,91.56
2022-11-05T11:29:28.608Z,91.54
2022-11-05T11:34:38.863Z,91.50
2022-11-05T11:39:48.504Z,91.50
2022-11-05T11:44:52.208Z,91.39
2022-11-05T11:49:58.673Z,91.37
2022-11-05T11:55:13.643Z,91.32
2022-11-05T12:00:18.958Z,91.30
2022-11-05T12:05:38.027Z,91.25
2022-11-05T12:11:08.713Z,91.10
2022-11-05T12:16:29.317Z,91.14
2022-11-05T12:21:53.051Z,91.24
2022-11-05T12:27:44.745Z,91.14
2022-11-05T12:33:16.062Z,90.69
2022-11-05T12:38:55.733Z,91.01
2022-11-05T12:44:29.753Z,91.00
2022-11-05T12:50:00.108Z,91.07
2022-11-05T12:55:09.930Z,91.00
2022-11-05T13:00:27.048Z,91.04
2022-11-05T13:05:48.236Z,91.00
2022-11-05T13:11:03.117Z,90.89
2022-11-05T13:16:34.264Z,90.72
2022-11-05T13:21:40.312Z,90.76
2022-11-05T13:26:52.715Z,90.93
2022-11-05T13:32:04.835Z,90.86
2022-11-05T13:37:28.211Z,90.92
2022-11-05T13:42:44.467Z,90.94
2022-11-05T13:48:25.140Z,90.95
2022-11-05T13:53:55.626Z,90.96
2022-11-05T13:59:49.700Z,90.92
2022-11-05T14:05:00.995Z,90.94
2022-11-05T14:10:38.165Z,90.99
2022-11-05T14:15:56.797Z,91.00
2022-11-05T14:21:03.085Z,91.01
2022-11-05T14:26:26.723Z,91.00
2022-11-05T14:32:08.743Z,91.00
2022-11-05T14:37:12.746Z,91.02
2022-11-05T14:42:24.991Z,91.04
2022-11-05T14:47:34.382Z,91.05
2022-11-05T14:52:40.647Z,91.12
2022-11-05T14:57:43.490Z,91.11
2022-11-05T15:03:05.429Z,91.10
2022-11-05T15:08:24.737Z,91.14
2022-11-05T15:13:55.445Z,91.14
2022-11-05T15:18:59.991Z,91.18
2022-11-05T15:24:04.789Z,91.20
2022-11-05T15:29:24.874Z,91.25
2022-11-05T15:34:32.797Z,91.26
2022-11-05T15:39:39.254Z,91.25
2022-11-05T15:44:47.216Z,91.24
2022-11-05T15:50:01.465Z,91.21
2022-11-05T15:55:14.720Z,91.21
2022-11-05T16:00:26.025Z,91.21
2022-11-05T16:05:34.148Z,91.21
2022-11-05T16:10:39.110Z,91.21
2022-11-05T16:15:55.522Z,91.24
2022-11-05T16:21:04.179Z,91.22
2022-11-05T16:31:57.378Z,91.35
2022-11-05T16:37:00.534Z,91.39
2022-11-05T16:42:23.439Z,91.49
2022-11-05T16:47:26.604Z,91.40
2022-11-05T16:52:29.834Z,91.43
2022-11-05T16:57:33.327Z,91.36
2022-11-05T17:02:36.364Z,91.38
2022-11-05T17:07:41.513Z,91.40
2022-11-05T17:12:45.701Z,91.41
2022-11-05T17:17:49.764Z,91.43
2022-11-05T17:22:52.654Z,91.49
2022-11-05T17:27:55.982Z,91.42
2022-11-05T17:32:59.315Z,91.46
2022-11-05T17:38:02.352Z,91.47
2022-11-05T17:43:06.169Z,91.50
2022-11-05T17:48:13.432Z,91.46
2022-11-05T17:53:19.261Z,91.49
2022-11-05T17:58:22.333Z,91.50
2022-11-05T18:03:25.247Z,91.51
2022-11-05T18:08:28.153Z,91.50
2022-11-05T18:13:31.010Z,91.52
2022-11-05T18:18:34.023Z,91.51
2022-11-05T18:23:36.938Z,91.50
2022-11-05T18:28:40.735Z,91.49
2022-11-05T18:33:44.123Z,91.50
2022-11-05T18:38:48.095Z,91.50
2022-11-05T18:43:51.461Z,91.51
2022-11-05T18:48:54.467Z,91.54
2022-11-05T18:53:58.680Z,91.53
2022-11-05T18:59:29.987Z,91.60
2022-11-05T19:04:26.327Z,91.61
2022-11-05T19:09:29.399Z,91.57
2022-11-05T19:14:32.752Z,91.63
2022-11-05T19:19:35.759Z,91.73
2022-11-05T19:24:38.774Z,91.72
2022-11-05T19:29:41.679Z,91.74
2022-11-05T19:34:44.583Z,91.71
2022-11-05T19:39:47.546Z,91.64
2022-11-05T19:44:50.429Z,91.60
2022-11-05T19:49:53.352Z,91.60
2022-11-05T19:54:56.240Z,91.58
2022-11-05T19:59:59.130Z,91.59
2022-11-05T20:05:02.032Z,91.54
2022-11-05T20:10:06.770Z,91.52
2022-11-05T20:15:10.237Z,91.50
2022-11-05T20:20:13.141Z,91.50
2022-11-05T20:25:16.095Z,91.49
2022-11-05T20:30:20.142Z,91.50
2022-11-05T20:35:24.354Z,91.50
2022-11-05T20:40:27.393Z,91.56
2022-11-05T20:45:30.493Z,91.57
2022-11-05T20:50:33.885Z,91.58
2022-11-05T20:55:45.228Z,91.60
2022-11-05T21:00:53.109Z,91.61
2022-11-05T21:06:00.060Z,91.61
2022-11-05T21:11:03.765Z,91.61
2022-11-05T21:16:14.028Z,91.62
2022-11-05T21:21:20.913Z,91.60
2022-11-05T21:26:23.913Z,91.64
2022-11-05T21:31:26.779Z,91.61
2022-11-05T21:36:30.179Z,91.60
2022-11-05T21:41:33.093Z,91.57
2022-11-05T21:46:37.795Z,91.60
2022-11-05T21:51:59.431Z,91.61
2022-11-05T21:57:21.090Z,91.57
2022-11-05T22:02:25.533Z,91.50
2022-11-05T22:07:38.833Z,91.51
2022-11-05T22:12:41.794Z,91.51
2022-11-05T22:17:47.211Z,91.50
2022-11-05T22:22:50.262Z,91.49
2022-11-05T22:27:53.178Z,91.46
2022-11-05T22:32:56.051Z,91.40
2022-11-05T22:37:58.893Z,91.40
2022-11-05T22:43:01.818Z,91.45
2022-11-05T22:48:06.994Z,91.46
2022-11-05T22:53:10.134Z,91.44
2022-11-05T22:58:13.378Z,91.50
2022-11-05T23:03:16.667Z,91.51
2022-11-05T23:08:37.940Z,91.43
2022-11-05T23:13:40.778Z,91.39
2022-11-05T23:19:02.046Z,91.39
2022-11-05T23:24:05.812Z,91.43
2022-11-05T23:29:08.712Z,91.43
2022-11-05T23:34:11.610Z,91.49
2022-11-05T23:39:14.811Z,91.62
2022-11-05T23:44:36.505Z,91.57
2022-11-05T23:49:39.407Z,91.44
2022-11-05T23:54:42.263Z,91.32
2022-11-05T23:59:45.121Z,90.89
